sensor_id;sensor_type;location;lat;lon;timestamp;pressure;altitude;pressure_sealevel;temperature;humidity
35655;BME280;21773;50.010;19.972;2023-01-04T00:02:10;100041.56;;;10.86;54.65
35655;BME280;21773;50.010;19.972;2023-01-04T00:05:14;100044.91;;;10.88;54.62
35655;BME280;21773;50.010;19.972;2023-01-04T00:08:18;100044.06;;;10.88;54.46
35655;BME280;21773;50.010;19.972;2023-01-04T00:11:23;100045.75;;;10.89;54.88
35655;BME280;21773;50.010;19.972;2023-01-04T00:14:28;100038.69;;;10.88;54.62
35655;BME280;21773;50.010;19.972;2023-01-04T00:17:32;100039.88;;;10.85;54.58
35655;BME280;21773;50.010;19.972;2023-01-04T00:20:35;100040.72;;;10.85;54.64
35655;BME280;21773;50.010;19.972;2023-01-04T00:23:40;100042.03;;;10.90;55.00
35655;BME280;21773;50.010;19.972;2023-01-04T00:26:44;100050.75;;;10.92;54.86
35655;BME280;21773;50.010;19.972;2023-01-04T00:29:48;100056.56;;;10.95;54.79
35655;BME280;21773;50.010;19.972;2023-01-04T00:32:52;100047.44;;;10.96;54.93
35655;BME280;21773;50.010;19.972;2023-01-04T00:35:55;100053.25;;;10.93;54.93
35655;BME280;21773;50.010;19.972;2023-01-04T00:39:00;100048.22;;;10.90;54.65
35655;BME280;21773;50.010;19.972;2023-01-04T00:42:10;100046.78;;;10.88;54.72
35655;BME280;21773;50.010;19.972;2023-01-04T00:45:15;100050.91;;;10.83;54.65
35655;BME280;21773;50.010;19.972;2023-01-04T00:48:19;100046.28;;;10.77;54.81
35655;BME280;21773;50.010;19.972;2023-01-04T00:51:22;100033.78;;;10.70;54.80
35655;BME280;21773;50.010;19.972;2023-01-04T00:54:26;100043.72;;;10.69;54.69
35655;BME280;21773;50.010;19.972;2023-01-04T00:57:29;100028.50;;;10.62;54.58
35655;BME280;21773;50.010;19.972;2023-01-04T01:00:34;100043.53;;;10.50;54.38
35655;BME280;21773;50.010;19.972;2023-01-04T01:03:37;100033.25;;;10.38;54.80
35655;BME280;21773;50.010;19.972;2023-01-04T01:06:41;100036.28;;;10.29;55.08
35655;BME280;21773;50.010;19.972;2023-01-04T01:09:44;100039.28;;;10.19;54.82
35655;BME280;21773;50.010;19.972;2023-01-04T01:12:47;100030.25;;;10.12;54.70
35655;BME280;21773;50.010;19.972;2023-01-04T01:15:53;100031.22;;;10.05;54.89
35655;BME280;21773;50.010;19.972;2023-01-04T01:18:56;100032.81;;;9.99;55.27
35655;BME280;21773;50.010;19.972;2023-01-04T01:22:00;100019.06;;;9.94;54.85
35655;BME280;21773;50.010;19.972;2023-01-04T01:25:04;100024.63;;;9.92;54.86
35655;BME280;21773;50.010;19.972;2023-01-04T01:28:08;100017.97;;;9.88;54.92
35655;BME280;21773;50.010;19.972;2023-01-04T01:31:14;99993.13;;;9.72;54.44
35655;BME280;21773;50.010;19.972;2023-01-04T01:34:18;100016.41;;;9.79;54.83
35655;BME280;21773;50.010;19.972;2023-01-04T01:37:21;100023.22;;;9.75;54.89
35655;BME280;21773;50.010;19.972;2023-01-04T01:40:25;100024.34;;;9.66;54.76
35655;BME280;21773;50.010;19.972;2023-01-04T01:43:49;100022.13;;;9.55;54.94
35655;BME280;21773;50.010;19.972;2023-01-04T01:46:55;100016.75;;;9.40;55.30
35655;BME280;21773;50.010;19.972;2023-01-04T01:49:59;100013.50;;;9.30;55.56
35655;BME280;21773;50.010;19.972;2023-01-04T01:53:06;100009.13;;;9.29;55.25
35655;BME280;21773;50.010;19.972;2023-01-04T01:56:11;100019.63;;;9.24;55.67
35655;BME280;21773;50.010;19.972;2023-01-04T01:59:19;100020.47;;;9.25;55.60
35655;BME280;21773;50.010;19.972;2023-01-04T02:02:24;100023.34;;;9.23;55.98
35655;BME280;21773;50.010;19.972;2023-01-04T02:05:29;100025.22;;;9.23;55.46
35655;BME280;21773;50.010;19.972;2023-01-04T02:08:36;100025.84;;;9.25;56.25
35655;BME280;21773;50.010;19.972;2023-01-04T02:11:40;100021.97;;;9.27;56.17
35655;BME280;21773;50.010;19.972;2023-01-04T02:14:46;100034.03;;;9.31;56.30
35655;BME280;21773;50.010;19.972;2023-01-04T02:17:57;100031.59;;;9.36;56.38
35655;BME280;21773;50.010;19.972;2023-01-04T02:21:05;100035.78;;;9.39;55.98
35655;BME280;21773;50.010;19.972;2023-01-04T02:24:25;100007.22;;;9.23;55.44
35655;BME280;21773;50.010;19.972;2023-01-04T02:27:46;100027.25;;;9.35;55.77
35655;BME280;21773;50.010;19.972;2023-01-04T02:34:29;100024.66;;;9.27;55.99
35655;BME280;21773;50.010;19.972;2023-01-04T02:37:45;100014.63;;;9.21;55.95
35655;BME280;21773;50.010;19.972;2023-01-04T02:40:56;100012.88;;;9.13;55.81
35655;BME280;21773;50.010;19.972;2023-01-04T02:44:08;99982.44;;;8.84;55.97
35655;BME280;21773;50.010;19.972;2023-01-04T02:47:34;100015.72;;;8.97;55.88
35655;BME280;21773;50.010;19.972;2023-01-04T02:50:57;99990.13;;;8.87;56.94
35655;BME280;21773;50.010;19.972;2023-01-04T02:54:03;99996.91;;;8.97;57.07
35655;BME280;21773;50.010;19.972;2023-01-04T02:57:21;100003.00;;;9.06;56.95
35655;BME280;21773;50.010;19.972;2023-01-04T03:00:42;99996.44;;;9.08;56.61
35655;BME280;21773;50.010;19.972;2023-01-04T03:04:15;99996.53;;;9.00;56.38
35655;BME280;21773;50.010;19.972;2023-01-04T03:07:45;99992.13;;;8.85;55.74
35655;BME280;21773;50.010;19.972;2023-01-04T03:10:57;99981.84;;;8.74;56.01
35655;BME280;21773;50.010;19.972;2023-01-04T03:14:04;99971.72;;;8.61;55.35
35655;BME280;21773;50.010;19.972;2023-01-04T03:17:33;99968.16;;;8.46;55.28
35655;BME280;21773;50.010;19.972;2023-01-04T03:20:41;99961.84;;;8.39;55.41
35655;BME280;21773;50.010;19.972;2023-01-04T03:23:49;99962.84;;;8.38;55.93
35655;BME280;21773;50.010;19.972;2023-01-04T03:27:12;99955.47;;;8.40;55.75
35655;BME280;21773;50.010;19.972;2023-01-04T03:30:37;99949.41;;;8.38;56.03
35655;BME280;21773;50.010;19.972;2023-01-04T03:34:02;99949.25;;;8.39;57.08
35655;BME280;21773;50.010;19.972;2023-01-04T03:37:30;99951.00;;;8.47;57.84
35655;BME280;21773;50.010;19.972;2023-01-04T03:40:35;99945.94;;;8.52;57.80
35655;BME280;21773;50.010;19.972;2023-01-04T03:44:02;99944.81;;;8.46;57.72
35655;BME280;21773;50.010;19.972;2023-01-04T03:47:32;99964.28;;;8.48;57.45
35655;BME280;21773;50.010;19.972;2023-01-04T03:51:00;99962.19;;;8.36;56.87
35655;BME280;21773;50.010;19.972;2023-01-04T03:54:09;99962.06;;;8.29;56.38
35655;BME280;21773;50.010;19.972;2023-01-04T03:57:14;99957.41;;;8.23;56.39
35655;BME280;21773;50.010;19.972;2023-01-04T04:00:19;99955.13;;;8.12;56.15
35655;BME280;21773;50.010;19.972;2023-01-04T04:03:24;99945.56;;;7.95;56.01
35655;BME280;21773;50.010;19.972;2023-01-04T04:06:27;99956.00;;;7.90;56.17
35655;BME280;21773;50.010;19.972;2023-01-04T04:09:49;99956.34;;;7.87;56.44
35655;BME280;21773;50.010;19.972;2023-01-04T04:12:53;99962.44;;;7.80;57.10
35655;BME280;21773;50.010;19.972;2023-01-04T04:15:56;99956.22;;;7.80;57.11
35655;BME280;21773;50.010;19.972;2023-01-04T04:19:00;99951.69;;;7.80;57.17
35655;BME280;21773;50.010;19.972;2023-01-04T04:22:09;99953.53;;;7.80;57.70
35655;BME280;21773;50.010;19.972;2023-01-04T04:25:14;99947.25;;;7.88;58.80
35655;BME280;21773;50.010;19.972;2023-01-04T04:28:18;99939.34;;;7.94;59.29
35655;BME280;21773;50.010;19.972;2023-01-04T04:31:21;99941.31;;;8.00;59.72
35655;BME280;21773;50.010;19.972;2023-01-04T04:34:24;99944.47;;;8.04;59.31
35655;BME280;21773;50.010;19.972;2023-01-04T04:37:28;99940.56;;;8.06;58.64
35655;BME280;21773;50.010;19.972;2023-01-04T04:40:34;99945.78;;;8.08;59.00
35655;BME280;21773;50.010;19.972;2023-01-04T04:43:57;99934.41;;;8.06;58.87
35655;BME280;21773;50.010;19.972;2023-01-04T04:47:01;99937.19;;;8.12;59.04
35655;BME280;21773;50.010;19.972;2023-01-04T04:50:05;99940.34;;;8.16;59.46
35655;BME280;21773;50.010;19.972;2023-01-04T04:53:09;99939.63;;;8.22;59.40
35655;BME280;21773;50.010;19.972;2023-01-04T04:56:14;99927.41;;;8.19;59.83
35655;BME280;21773;50.010;19.972;2023-01-04T04:59:17;99934.06;;;8.23;59.58
35655;BME280;21773;50.010;19.972;2023-01-04T05:02:20;99925.84;;;8.25;59.01
35655;BME280;21773;50.010;19.972;2023-01-04T05:05:24;99915.53;;;8.14;58.56
35655;BME280;21773;50.010;19.972;2023-01-04T05:08:28;99906.94;;;7.96;57.52
35655;BME280;21773;50.010;19.972;2023-01-04T05:11:32;99910.03;;;7.84;57.69
35655;BME280;21773;50.010;19.972;2023-01-04T05:14:53;99913.28;;;7.80;57.74
35655;BME280;21773;50.010;19.972;2023-01-04T05:17:57;99879.63;;;7.69;58.74
35655;BME280;21773;50.010;19.972;2023-01-04T05:21:00;99895.91;;;7.91;59.01
35655;BME280;21773;50.010;19.972;2023-01-04T05:24:04;99890.28;;;8.00;59.85
35655;BME280;21773;50.010;19.972;2023-01-04T05:27:09;99883.00;;;8.09;60.05
35655;BME280;21773;50.010;19.972;2023-01-04T05:30:14;99871.31;;;8.16;59.68
35655;BME280;21773;50.010;19.972;2023-01-04T05:33:35;99869.31;;;8.18;60.11
35655;BME280;21773;50.010;19.972;2023-01-04T05:36:39;99865.22;;;8.22;59.70
35655;BME280;21773;50.010;19.972;2023-01-04T05:39:42;99867.91;;;8.22;59.34
35655;BME280;21773;50.010;19.972;2023-01-04T05:42:47;99866.22;;;8.30;59.97
35655;BME280;21773;50.010;19.972;2023-01-04T05:45:52;99865.47;;;8.36;59.80
35655;BME280;21773;50.010;19.972;2023-01-04T05:48:57;99863.34;;;8.46;59.28
35655;BME280;21773;50.010;19.972;2023-01-04T05:52:00;99861.31;;;8.48;58.67
35655;BME280;21773;50.010;19.972;2023-01-04T05:55:04;99862.44;;;8.53;58.17
35655;BME280;21773;50.010;19.972;2023-01-04T05:58:09;99860.59;;;8.54;57.82
35655;BME280;21773;50.010;19.972;2023-01-04T06:01:12;99865.75;;;8.55;57.31
35655;BME280;21773;50.010;19.972;2023-01-04T06:04:16;99851.78;;;8.45;56.76
35655;BME280;21773;50.010;19.972;2023-01-04T06:07:19;99866.78;;;8.54;57.17
35655;BME280;21773;50.010;19.972;2023-01-04T06:10:23;99857.69;;;8.55;57.00
35655;BME280;21773;50.010;19.972;2023-01-04T06:13:28;99859.19;;;8.58;56.81
35655;BME280;21773;50.010;19.972;2023-01-04T06:16:31;99852.81;;;8.59;56.40
35655;BME280;21773;50.010;19.972;2023-01-04T06:19:35;99859.38;;;8.56;56.60
35655;BME280;21773;50.010;19.972;2023-01-04T06:22:39;99864.94;;;8.55;55.98
35655;BME280;21773;50.010;19.972;2023-01-04T06:25:44;99853.38;;;8.54;56.26
35655;BME280;21773;50.010;19.972;2023-01-04T06:28:49;99860.31;;;8.49;56.35
35655;BME280;21773;50.010;19.972;2023-01-04T06:31:52;99855.66;;;8.43;56.02
35655;BME280;21773;50.010;19.972;2023-01-04T06:34:56;99849.09;;;8.31;55.75
35655;BME280;21773;50.010;19.972;2023-01-04T06:37:59;99850.63;;;8.25;55.49
35655;BME280;21773;50.010;19.972;2023-01-04T06:41:03;99852.72;;;8.15;55.32
35655;BME280;21773;50.010;19.972;2023-01-04T06:44:08;99836.88;;;8.05;55.16
35655;BME280;21773;50.010;19.972;2023-01-04T06:47:11;99829.72;;;7.98;55.08
35655;BME280;21773;50.010;19.972;2023-01-04T06:50:15;99822.94;;;7.87;54.88
35655;BME280;21773;50.010;19.972;2023-01-04T06:53:19;99830.44;;;7.77;54.26
35655;BME280;21773;50.010;19.972;2023-01-04T06:56:22;99830.72;;;7.59;53.73
35655;BME280;21773;50.010;19.972;2023-01-04T06:59:27;99834.00;;;7.47;53.43
35655;BME280;21773;50.010;19.972;2023-01-04T07:02:31;99834.25;;;7.37;53.63
35655;BME280;21773;50.010;19.972;2023-01-04T07:05:34;99825.06;;;7.31;53.92
35655;BME280;21773;50.010;19.972;2023-01-04T07:08:38;99834.78;;;7.32;54.52
35655;BME280;21773;50.010;19.972;2023-01-04T07:11:41;99838.84;;;7.51;55.86
35655;BME280;21773;50.010;19.972;2023-01-04T07:14:47;99846.41;;;7.70;55.93
35655;BME280;21773;50.010;19.972;2023-01-04T07:17:53;99829.22;;;7.79;55.65
35655;BME280;21773;50.010;19.972;2023-01-04T07:20:56;99837.44;;;8.01;55.33
35655;BME280;21773;50.010;19.972;2023-01-04T07:24:00;99831.81;;;8.25;54.65
35655;BME280;21773;50.010;19.972;2023-01-04T07:27:04;99817.63;;;9.68;51.17
35655;BME280;21773;50.010;19.972;2023-01-04T07:30:10;99814.94;;;11.60;45.24
35655;BME280;21773;50.010;19.972;2023-01-04T07:33:14;99799.81;;;13.40;41.31
35655;BME280;21773;50.010;19.972;2023-01-04T07:36:17;99807.91;;;14.89;37.85
35655;BME280;21773;50.010;19.972;2023-01-04T07:39:21;99806.56;;;15.87;35.20
35655;BME280;21773;50.010;19.972;2023-01-04T07:42:24;99809.47;;;17.02;34.26
35655;BME280;21773;50.010;19.972;2023-01-04T07:45:29;99803.97;;;18.15;32.14
35655;BME280;21773;50.010;19.972;2023-01-04T07:48:32;99803.19;;;19.40;29.99
35655;BME280;21773;50.010;19.972;2023-01-04T07:51:35;99805.94;;;20.63;28.63
35655;BME280;21773;50.010;19.972;2023-01-04T07:54:40;99822.88;;;21.79;27.25
35655;BME280;21773;50.010;19.972;2023-01-04T07:57:44;99816.56;;;22.75;25.81
35655;BME280;21773;50.010;19.972;2023-01-04T08:00:48;99815.06;;;23.67;24.78
35655;BME280;21773;50.010;19.972;2023-01-04T08:03:52;99801.34;;;24.35;23.69
35655;BME280;21773;50.010;19.972;2023-01-04T08:06:56;99796.50;;;25.03;23.14
35655;BME280;21773;50.010;19.972;2023-01-04T08:09:59;99769.50;;;25.61;22.25
35655;BME280;21773;50.010;19.972;2023-01-04T08:13:03;99786.09;;;26.45;21.82
35655;BME280;21773;50.010;19.972;2023-01-04T08:16:17;99784.84;;;27.10;20.26
35655;BME280;21773;50.010;19.972;2023-01-04T08:19:21;99775.28;;;27.80;20.27
35655;BME280;21773;50.010;19.972;2023-01-04T08:22:24;99784.97;;;28.35;19.49
35655;BME280;21773;50.010;19.972;2023-01-04T08:25:28;99783.97;;;28.93;18.92
35655;BME280;21773;50.010;19.972;2023-01-04T08:28:32;99775.28;;;29.34;18.22
35655;BME280;21773;50.010;19.972;2023-01-04T08:31:37;99770.59;;;29.69;17.88
35655;BME280;21773;50.010;19.972;2023-01-04T08:34:41;99781.38;;;30.13;17.55
35655;BME280;21773;50.010;19.972;2023-01-04T08:37:45;99782.59;;;30.68;17.20
35655;BME280;21773;50.010;19.972;2023-01-04T08:40:48;99785.88;;;30.99;16.42
35655;BME280;21773;50.010;19.972;2023-01-04T08:44:08;99793.03;;;31.38;16.24
35655;BME280;21773;50.010;19.972;2023-01-04T08:47:12;99800.84;;;31.74;15.83
35655;BME280;21773;50.010;19.972;2023-01-04T08:50:16;99791.19;;;32.13;15.11
35655;BME280;21773;50.010;19.972;2023-01-04T08:53:21;99792.66;;;32.31;15.18
35655;BME280;21773;50.010;19.972;2023-01-04T08:56:24;99781.53;;;32.55;15.02
35655;BME280;21773;50.010;19.972;2023-01-04T08:59:27;99779.75;;;32.84;14.77
35655;BME280;21773;50.010;19.972;2023-01-04T09:02:32;99761.13;;;32.63;14.91
35655;BME280;21773;50.010;19.972;2023-01-04T09:05:36;99773.38;;;32.38;15.16
35655;BME280;21773;50.010;19.972;2023-01-04T09:08:40;99765.59;;;32.56;14.85
35655;BME280;21773;50.010;19.972;2023-01-04T09:11:45;99759.97;;;32.64;15.05
35655;BME280;21773;50.010;19.972;2023-01-04T09:14:48;99756.13;;;32.81;14.69
35655;BME280;21773;50.010;19.972;2023-01-04T09:17:52;99744.03;;;32.77;14.46
35655;BME280;21773;50.010;19.972;2023-01-04T09:21:18;99751.72;;;32.92;14.07
35655;BME280;21773;50.010;19.972;2023-01-04T09:24:21;99743.88;;;33.10;13.76
35655;BME280;21773;50.010;19.972;2023-01-04T09:27:25;99742.91;;;33.55;13.73
35655;BME280;21773;50.010;19.972;2023-01-04T09:30:28;99722.84;;;33.77;13.69
35655;BME280;21773;50.010;19.972;2023-01-04T09:33:34;99719.13;;;34.16;13.54
35655;BME280;21773;50.010;19.972;2023-01-04T09:36:58;99715.41;;;34.40;13.55
35655;BME280;21773;50.010;19.972;2023-01-04T09:40:01;99700.75;;;34.31;13.16
35655;BME280;21773;50.010;19.972;2023-01-04T09:43:14;99690.28;;;34.59;13.45
35655;BME280;21773;50.010;19.972;2023-01-04T09:46:28;99681.97;;;34.63;12.93
35655;BME280;21773;50.010;19.972;2023-01-04T09:49:38;99676.75;;;34.30;12.59
35655;BME280;21773;50.010;19.972;2023-01-04T09:52:50;99673.09;;;34.61;13.14
35655;BME280;21773;50.010;19.972;2023-01-04T09:56:03;99661.81;;;34.42;12.83
35655;BME280;21773;50.010;19.972;2023-01-04T09:59:14;99658.22;;;34.57;13.24
35655;BME280;21773;50.010;19.972;2023-01-04T10:02:24;99642.59;;;34.24;13.24
35655;BME280;21773;50.010;19.972;2023-01-04T10:05:33;99638.88;;;34.52;12.49
35655;BME280;21773;50.010;19.972;2023-01-04T10:08:37;99631.38;;;34.56;12.14
35655;BME280;21773;50.010;19.972;2023-01-04T10:11:55;99618.47;;;34.51;12.21
35655;BME280;21773;50.010;19.972;2023-01-04T10:15:20;99610.78;;;34.17;13.25
35655;BME280;21773;50.010;19.972;2023-01-04T10:18:30;99612.88;;;33.61;12.89
35655;BME280;21773;50.010;19.972;2023-01-04T10:22:05;99595.28;;;32.92;13.54
35655;BME280;21773;50.010;19.972;2023-01-04T10:25:22;99583.97;;;31.92;14.19
35655;BME280;21773;50.010;19.972;2023-01-04T10:28:34;99578.19;;;31.97;14.07
35655;BME280;21773;50.010;19.972;2023-01-04T10:31:45;99571.78;;;31.96;13.91
35655;BME280;21773;50.010;19.972;2023-01-04T10:34:52;99566.63;;;32.19;14.27
35655;BME280;21773;50.010;19.972;2023-01-04T10:37:59;99549.03;;;32.67;14.05
35655;BME280;21773;50.010;19.972;2023-01-04T10:41:08;99559.06;;;32.96;13.71
35655;BME280;21773;50.010;19.972;2023-01-04T10:44:17;99543.56;;;32.58;13.81
35655;BME280;21773;50.010;19.972;2023-01-04T10:47:28;99536.84;;;32.23;13.70
35655;BME280;21773;50.010;19.972;2023-01-04T10:50:38;99534.50;;;32.37;13.63
35655;BME280;21773;50.010;19.972;2023-01-04T10:53:52;99523.50;;;32.81;13.79
35655;BME280;21773;50.010;19.972;2023-01-04T10:57:03;99512.22;;;33.05;13.35
35655;BME280;21773;50.010;19.972;2023-01-04T11:00:14;99519.19;;;33.11;13.36
35655;BME280;21773;50.010;19.972;2023-01-04T11:03:25;99516.44;;;32.99;13.73
35655;BME280;21773;50.010;19.972;2023-01-04T11:06:34;99513.88;;;33.06;13.46
35655;BME280;21773;50.010;19.972;2023-01-04T11:09:47;99496.84;;;33.23;13.15
35655;BME280;21773;50.010;19.972;2023-01-04T11:12:52;99483.41;;;33.44;13.43
35655;BME280;21773;50.010;19.972;2023-01-04T11:15:55;99466.06;;;32.95;13.29
35655;BME280;21773;50.010;19.972;2023-01-04T11:19:00;99466.16;;;32.83;13.40
35655;BME280;21773;50.010;19.972;2023-01-04T11:22:10;99458.84;;;32.79;13.67
35655;BME280;21773;50.010;19.972;2023-01-04T11:25:19;99443.84;;;32.71;13.35
35655;BME280;21773;50.010;19.972;2023-01-04T11:28:43;99417.03;;;32.42;13.58
35655;BME280;21773;50.010;19.972;2023-01-04T11:31:52;99423.38;;;32.27;13.77
35655;BME280;21773;50.010;19.972;2023-01-04T11:34:56;99412.94;;;31.51;14.05
35655;BME280;21773;50.010;19.972;2023-01-04T11:38:09;99414.72;;;30.78;14.32
35655;BME280;21773;50.010;19.972;2023-01-04T11:41:17;99408.41;;;29.48;15.03
35655;BME280;21773;50.010;19.972;2023-01-04T11:44:22;99399.81;;;28.34;16.44
35655;BME280;21773;50.010;19.972;2023-01-04T11:47:26;99395.66;;;27.40;17.36
35655;BME280;21773;50.010;19.972;2023-01-04T11:50:39;99390.22;;;26.87;17.49
35655;BME280;21773;50.010;19.972;2023-01-04T11:53:42;99381.19;;;26.59;17.89
35655;BME280;21773;50.010;19.972;2023-01-04T11:57:01;99376.22;;;26.25;18.03
35655;BME280;21773;50.010;19.972;2023-01-04T12:00:14;99381.25;;;25.74;18.30
35655;BME280;21773;50.010;19.972;2023-01-04T12:03:24;99376.66;;;25.15;19.06
35655;BME280;21773;50.010;19.972;2023-01-04T12:06:35;99371.13;;;24.36;20.05
35655;BME280;21773;50.010;19.972;2023-01-04T12:09:40;99367.75;;;23.64;20.87
35655;BME280;21773;50.010;19.972;2023-01-04T12:12:46;99364.00;;;23.08;21.86
35655;BME280;21773;50.010;19.972;2023-01-04T12:15:57;99367.34;;;22.76;22.23
35655;BME280;21773;50.010;19.972;2023-01-04T12:19:02;99350.47;;;22.54;22.39
35655;BME280;21773;50.010;19.972;2023-01-04T12:22:18;99349.47;;;22.44;22.37
35655;BME280;21773;50.010;19.972;2023-01-04T12:25:29;99335.38;;;22.22;22.84
35655;BME280;21773;50.010;19.972;2023-01-04T12:28:37;99323.88;;;22.15;22.57
35655;BME280;21773;50.010;19.972;2023-01-04T12:31:41;99314.09;;;22.04;23.24
35655;BME280;21773;50.010;19.972;2023-01-04T12:34:46;99308.59;;;22.04;22.89
35655;BME280;21773;50.010;19.972;2023-01-04T12:37:49;99307.41;;;22.15;22.46
35655;BME280;21773;50.010;19.972;2023-01-04T12:40:53;99297.09;;;22.02;22.87
35655;BME280;21773;50.010;19.972;2023-01-04T12:43:59;99290.47;;;22.08;22.46
35655;BME280;21773;50.010;19.972;2023-01-04T12:47:03;99286.34;;;22.06;22.77
35655;BME280;21773;50.010;19.972;2023-01-04T12:50:24;99254.81;;;22.03;22.16
35655;BME280;21773;50.010;19.972;2023-01-04T12:53:52;99276.38;;;22.15;22.62
35655;BME280;21773;50.010;19.972;2023-01-04T13:04:29;99251.75;;;20.47;23.82
35655;BME280;21773;50.010;19.972;2023-01-04T13:07:41;99212.91;;;19.64;24.85
35655;BME280;21773;50.010;19.972;2023-01-04T13:10:47;99236.38;;;19.40;25.50
35655;BME280;21773;50.010;19.972;2023-01-04T13:13:56;99231.16;;;18.61;25.90
35655;BME280;21773;50.010;19.972;2023-01-04T13:17:13;99234.81;;;17.98;26.30
35655;BME280;21773;50.010;19.972;2023-01-04T13:20:20;99214.78;;;17.55;26.88
35655;BME280;21773;50.010;19.972;2023-01-04T13:23:25;99230.88;;;17.03;27.51
35655;BME280;21773;50.010;19.972;2023-01-04T13:26:35;99228.00;;;16.66;28.02
35655;BME280;21773;50.010;19.972;2023-01-04T13:29:39;99214.13;;;16.13;29.02
35655;BME280;21773;50.010;19.972;2023-01-04T13:32:43;99198.53;;;15.70;29.70
35655;BME280;21773;50.010;19.972;2023-01-04T13:36:10;99208.56;;;15.52;30.20
35655;BME280;21773;50.010;19.972;2023-01-04T13:39:14;99177.06;;;15.23;30.94
35655;BME280;21773;50.010;19.972;2023-01-04T13:42:24;99178.66;;;15.07;31.07
35655;BME280;21773;50.010;19.972;2023-01-04T13:45:45;99158.25;;;14.77;31.40
35655;BME280;21773;50.010;19.972;2023-01-04T13:48:53;99173.69;;;14.88;31.27
35655;BME280;21773;50.010;19.972;2023-01-04T13:52:19;99171.25;;;14.74;31.39
35655;BME280;21773;50.010;19.972;2023-01-04T13:55:42;99166.69;;;14.63;31.74
35655;BME280;21773;50.010;19.972;2023-01-04T13:58:46;99161.66;;;14.55;32.29
35655;BME280;21773;50.010;19.972;2023-01-04T14:01:49;99153.84;;;14.59;32.19
35655;BME280;21773;50.010;19.972;2023-01-04T14:04:54;99171.09;;;14.53;31.83
35655;BME280;21773;50.010;19.972;2023-01-04T14:07:59;99146.94;;;14.51;32.36
35655;BME280;21773;50.010;19.972;2023-01-04T14:11:12;99144.53;;;14.55;32.33
35655;BME280;21773;50.010;19.972;2023-01-04T14:14:26;99137.97;;;14.51;32.35
35655;BME280;21773;50.010;19.972;2023-01-04T14:17:33;99124.75;;;14.71;31.77
35655;BME280;21773;50.010;19.972;2023-01-04T14:20:37;99126.19;;;14.73;31.91
35655;BME280;21773;50.010;19.972;2023-01-04T14:23:42;99131.84;;;14.72;31.92
35655;BME280;21773;50.010;19.972;2023-01-04T14:26:45;99116.69;;;14.59;32.32
35655;BME280;21773;50.010;19.972;2023-01-04T14:29:49;99110.94;;;14.32;32.60
35655;BME280;21773;50.010;19.972;2023-01-04T14:32:54;99106.63;;;14.20;32.90
35655;BME280;21773;50.010;19.972;2023-01-04T14:36:03;99092.41;;;14.01;33.38
35655;BME280;21773;50.010;19.972;2023-01-04T14:39:35;99085.94;;;13.91;33.55
35655;BME280;21773;50.010;19.972;2023-01-04T14:42:38;99073.22;;;13.79;34.00
35655;BME280;21773;50.010;19.972;2023-01-04T14:45:41;99068.97;;;13.83;33.77
35655;BME280;21773;50.010;19.972;2023-01-04T14:48:45;99077.75;;;13.62;34.41
35655;BME280;21773;50.010;19.972;2023-01-04T14:51:50;99075.03;;;13.51;34.93
35655;BME280;21773;50.010;19.972;2023-01-04T14:54:57;99085.97;;;13.44;35.45
35655;BME280;21773;50.010;19.972;2023-01-04T14:58:00;99061.28;;;13.29;36.05
35655;BME280;21773;50.010;19.972;2023-01-04T15:01:04;99078.41;;;13.11;36.70
35655;BME280;21773;50.010;19.972;2023-01-04T15:04:07;99067.00;;;13.09;36.61
35655;BME280;21773;50.010;19.972;2023-01-04T15:07:30;99048.84;;;13.10;36.61
35655;BME280;21773;50.010;19.972;2023-01-04T15:10:36;99063.50;;;12.90;37.47
35655;BME280;21773;50.010;19.972;2023-01-04T15:13:40;99052.94;;;13.00;37.37
35655;BME280;21773;50.010;19.972;2023-01-04T15:16:43;99045.78;;;12.94;38.06
35655;BME280;21773;50.010;19.972;2023-01-04T15:19:47;99036.13;;;12.98;37.60
35655;BME280;21773;50.010;19.972;2023-01-04T15:22:50;99010.13;;;12.97;37.85
35655;BME280;21773;50.010;19.972;2023-01-04T15:25:55;99023.53;;;12.92;38.21
35655;BME280;21773;50.010;19.972;2023-01-04T15:28:58;99029.28;;;12.96;38.06
35655;BME280;21773;50.010;19.972;2023-01-04T15:32:04;99020.81;;;12.92;38.45
35655;BME280;21773;50.010;19.972;2023-01-04T15:35:08;99011.44;;;12.95;38.42
35655;BME280;21773;50.010;19.972;2023-01-04T15:38:12;99007.31;;;13.04;38.31
35655;BME280;21773;50.010;19.972;2023-01-04T15:41:20;98990.00;;;12.93;38.51
35655;BME280;21773;50.010;19.972;2023-01-04T15:44:42;98976.94;;;12.90;38.45
35655;BME280;21773;50.010;19.972;2023-01-04T15:47:45;98972.59;;;13.01;38.15
35655;BME280;21773;50.010;19.972;2023-01-04T15:50:48;98970.81;;;12.83;39.04
35655;BME280;21773;50.010;19.972;2023-01-04T15:53:52;98969.25;;;12.76;39.27
35655;BME280;21773;50.010;19.972;2023-01-04T15:56:57;98966.94;;;12.79;38.96
35655;BME280;21773;50.010;19.972;2023-01-04T16:00:01;98974.56;;;12.82;39.16
35655;BME280;21773;50.010;19.972;2023-01-04T16:03:12;98964.91;;;12.63;39.71
35655;BME280;21773;50.010;19.972;2023-01-04T16:06:16;98956.56;;;12.76;39.38
35655;BME280;21773;50.010;19.972;2023-01-04T16:09:20;98972.34;;;12.79;39.34
35655;BME280;21773;50.010;19.972;2023-01-04T16:12:25;98966.94;;;12.79;39.93
35655;BME280;21773;50.010;19.972;2023-01-04T16:15:53;98953.28;;;12.74;39.94
35655;BME280;21773;50.010;19.972;2023-01-04T16:18:57;98957.78;;;12.80;39.93
35655;BME280;21773;50.010;19.972;2023-01-04T16:22:00;98963.97;;;12.69;40.41
35655;BME280;21773;50.010;19.972;2023-01-04T16:25:05;98943.66;;;12.78;40.15
35655;BME280;21773;50.010;19.972;2023-01-04T16:28:13;98947.16;;;12.90;40.61
35655;BME280;21773;50.010;19.972;2023-01-04T16:31:17;98938.81;;;12.69;41.22
35655;BME280;21773;50.010;19.972;2023-01-04T16:34:21;98929.88;;;12.80;41.03
35655;BME280;21773;50.010;19.972;2023-01-04T16:37:26;98936.00;;;12.75;41.62